sensor_id;sensor_type;location;lat;lon;timestamp;P1;durP1;ratioP1;P2;durP2;ratioP2
17814;SDS011;9031;50.974;11.330;2023-05-07T00:00:37;35.13;;;24.37;;
17814;SDS011;9031;50.974;11.330;2023-05-07T00:03:03;36.17;;;25.47;;
17814;SDS011;9031;50.974;11.330;2023-05-07T00:05:30;37.50;;;25.77;;
17814;SDS011;9031;50.974;11.330;2023-05-07T00:07:55;37.60;;;25.83;;
17814;SDS011;9031;50.974;11.330;2023-05-07T00:10:21;36.70;;;25.27;;
17814;SDS011;9031;50.974;11.330;2023-05-07T00:12:46;39.67;;;26.20;;
17814;SDS011;9031;50.974;11.330;2023-05-07T00:15:12;36.23;;;26.00;;
17814;SDS011;9031;50.974;11.330;2023-05-07T00:17:37;36.57;;;24.93;;
17814;SDS011;9031;50.974;11.330;2023-05-07T00:20:03;35.77;;;24.77;;
17814;SDS011;9031;50.974;11.330;2023-05-07T00:22:30;36.83;;;24.70;;
17814;SDS011;9031;50.974;11.330;2023-05-07T00:24:57;35.60;;;25.27;;
17814;SDS011;9031;50.974;11.330;2023-05-07T00:27:22;38.30;;;26.13;;
17814;SDS011;9031;50.974;11.330;2023-05-07T00:29:48;32.30;;;24.07;;
17814;SDS011;9031;50.974;11.330;2023-05-07T00:32:14;37.10;;;25.30;;
17814;SDS011;9031;50.974;11.330;2023-05-07T00:34:39;33.50;;;23.80;;
17814;SDS011;9031;50.974;11.330;2023-05-07T00:37:05;37.13;;;25.77;;
17814;SDS011;9031;50.974;11.330;2023-05-07T00:39:32;41.93;;;25.27;;
17814;SDS011;9031;50.974;11.330;2023-05-07T00:41:58;34.07;;;24.83;;
17814;SDS011;9031;50.974;11.330;2023-05-07T00:44:25;35.23;;;25.30;;
17814;SDS011;9031;50.974;11.330;2023-05-07T00:46:51;38.97;;;25.60;;
17814;SDS011;9031;50.974;11.330;2023-05-07T00:49:17;39.77;;;25.97;;
17814;SDS011;9031;50.974;11.330;2023-05-07T00:51:43;37.10;;;25.97;;
17814;SDS011;9031;50.974;11.330;2023-05-07T00:54:10;38.93;;;24.67;;
17814;SDS011;9031;50.974;11.330;2023-05-07T00:56:36;33.50;;;24.83;;
17814;SDS011;9031;50.974;11.330;2023-05-07T00:59:02;36.67;;;25.03;;
17814;SDS011;9031;50.974;11.330;2023-05-07T01:01:28;32.90;;;23.97;;
17814;SDS011;9031;50.974;11.330;2023-05-07T01:03:53;34.53;;;24.43;;
17814;SDS011;9031;50.974;11.330;2023-05-07T01:06:19;35.57;;;23.50;;
17814;SDS011;9031;50.974;11.330;2023-05-07T01:08:46;36.80;;;24.83;;
17814;SDS011;9031;50.974;11.330;2023-05-07T01:11:13;34.90;;;24.17;;
17814;SDS011;9031;50.974;11.330;2023-05-07T01:13:39;36.20;;;25.43;;
17814;SDS011;9031;50.974;11.330;2023-05-07T01:16:06;33.20;;;25.30;;
17814;SDS011;9031;50.974;11.330;2023-05-07T01:18:33;35.47;;;24.33;;
17814;SDS011;9031;50.974;11.330;2023-05-07T01:20:59;35.43;;;24.40;;
17814;SDS011;9031;50.974;11.330;2023-05-07T01:23:26;33.00;;;24.13;;
17814;SDS011;9031;50.974;11.330;2023-05-07T01:25:53;31.00;;;23.50;;
17814;SDS011;9031;50.974;11.330;2023-05-07T01:28:19;33.00;;;24.47;;
17814;SDS011;9031;50.974;11.330;2023-05-07T01:30:46;31.20;;;22.77;;
17814;SDS011;9031;50.974;11.330;2023-05-07T01:33:15;32.10;;;22.53;;
17814;SDS011;9031;50.974;11.330;2023-05-07T01:35:45;28.30;;;21.23;;
17814;SDS011;9031;50.974;11.330;2023-05-07T01:38:12;27.77;;;21.57;;
17814;SDS011;9031;50.974;11.330;2023-05-07T01:40:38;24.33;;;20.33;;
17814;SDS011;9031;50.974;11.330;2023-05-07T01:43:04;24.23;;;19.03;;
17814;SDS011;9031;50.974;11.330;2023-05-07T01:45:30;28.83;;;19.63;;
17814;SDS011;9031;50.974;11.330;2023-05-07T01:47:57;25.50;;;18.87;;
17814;SDS011;9031;50.974;11.330;2023-05-07T01:50:23;25.33;;;18.83;;
17814;SDS011;9031;50.974;11.330;2023-05-07T01:52:50;25.40;;;19.20;;
17814;SDS011;9031;50.974;11.330;2023-05-07T01:55:16;26.37;;;19.30;;
17814;SDS011;9031;50.974;11.330;2023-05-07T01:57:42;25.70;;;19.20;;
17814;SDS011;9031;50.974;11.330;2023-05-07T02:00:07;23.07;;;19.60;;
17814;SDS011;9031;50.974;11.330;2023-05-07T02:02:34;23.27;;;20.63;;
17814;SDS011;9031;50.974;11.330;2023-05-07T02:05:00;29.57;;;20.37;;
17814;SDS011;9031;50.974;11.330;2023-05-07T02:07:26;27.77;;;20.40;;
17814;SDS011;9031;50.974;11.330;2023-05-07T02:09:52;26.73;;;20.90;;
17814;SDS011;9031;50.974;11.330;2023-05-07T02:12:18;26.80;;;19.90;;
17814;SDS011;9031;50.974;11.330;2023-05-07T02:14:44;26.93;;;20.07;;
17814;SDS011;9031;50.974;11.330;2023-05-07T02:17:09;24.17;;;19.70;;
17814;SDS011;9031;50.974;11.330;2023-05-07T02:19:35;26.53;;;19.90;;
17814;SDS011;9031;50.974;11.330;2023-05-07T02:22:00;22.20;;;17.83;;
17814;SDS011;9031;50.974;11.330;2023-05-07T02:24:26;22.73;;;18.77;;
17814;SDS011;9031;50.974;11.330;2023-05-07T02:26:51;25.57;;;19.13;;
17814;SDS011;9031;50.974;11.330;2023-05-07T02:29:17;22.90;;;19.03;;
17814;SDS011;9031;50.974;11.330;2023-05-07T02:31:42;25.50;;;20.23;;
17814;SDS011;9031;50.974;11.330;2023-05-07T02:34:08;26.87;;;20.37;;
17814;SDS011;9031;50.974;11.330;2023-05-07T02:36:33;25.93;;;19.87;;
17814;SDS011;9031;50.974;11.330;2023-05-07T02:38:59;27.13;;;20.77;;
17814;SDS011;9031;50.974;11.330;2023-05-07T02:41:25;26.33;;;20.70;;
17814;SDS011;9031;50.974;11.330;2023-05-07T02:43:51;27.90;;;20.43;;
17814;SDS011;9031;50.974;11.330;2023-05-07T02:46:16;29.10;;;19.47;;
17814;SDS011;9031;50.974;11.330;2023-05-07T02:48:41;24.57;;;19.07;;
17814;SDS011;9031;50.974;11.330;2023-05-07T02:51:07;27.40;;;19.73;;
17814;SDS011;9031;50.974;11.330;2023-05-07T02:53:33;26.47;;;19.63;;
17814;SDS011;9031;50.974;11.330;2023-05-07T02:55:59;27.23;;;18.43;;
17814;SDS011;9031;50.974;11.330;2023-05-07T02:58:25;27.77;;;19.27;;
17814;SDS011;9031;50.974;11.330;2023-05-07T03:00:51;22.53;;;17.87;;
17814;SDS011;9031;50.974;11.330;2023-05-07T03:03:17;23.67;;;17.90;;
17814;SDS011;9031;50.974;11.330;2023-05-07T03:05:43;25.73;;;18.67;;
17814;SDS011;9031;50.974;11.330;2023-05-07T03:08:08;23.30;;;17.20;;
17814;SDS011;9031;50.974;11.330;2023-05-07T03:10:35;25.17;;;18.40;;
17814;SDS011;9031;50.974;11.330;2023-05-07T03:13:01;25.87;;;19.00;;
17814;SDS011;9031;50.974;11.330;2023-05-07T03:15:26;26.73;;;18.33;;
17814;SDS011;9031;50.974;11.330;2023-05-07T03:17:52;25.83;;;19.60;;
17814;SDS011;9031;50.974;11.330;2023-05-07T03:20:17;29.03;;;18.90;;
17814;SDS011;9031;50.974;11.330;2023-05-07T03:22:43;27.23;;;20.30;;
17814;SDS011;9031;50.974;11.330;2023-05-07T03:25:09;27.67;;;20.57;;
17814;SDS011;9031;50.974;11.330;2023-05-07T03:27:35;27.97;;;20.80;;
17814;SDS011;9031;50.974;11.330;2023-05-07T03:30:00;27.53;;;20.50;;
17814;SDS011;9031;50.974;11.330;2023-05-07T03:32:26;28.37;;;20.20;;
17814;SDS011;9031;50.974;11.330;2023-05-07T03:34:51;28.23;;;19.60;;
17814;SDS011;9031;50.974;11.330;2023-05-07T03:37:17;26.77;;;19.40;;
17814;SDS011;9031;50.974;11.330;2023-05-07T03:39:42;27.30;;;18.27;;
17814;SDS011;9031;50.974;11.330;2023-05-07T03:42:08;25.60;;;18.67;;
17814;SDS011;9031;50.974;11.330;2023-05-07T03:44:34;23.47;;;17.10;;
17814;SDS011;9031;50.974;11.330;2023-05-07T03:47:01;25.83;;;18.17;;
17814;SDS011;9031;50.974;11.330;2023-05-07T03:49:27;21.30;;;16.47;;
17814;SDS011;9031;50.974;11.330;2023-05-07T03:51:52;22.90;;;15.43;;
17814;SDS011;9031;50.974;11.330;2023-05-07T03:54:17;19.77;;;16.17;;
17814;SDS011;9031;50.974;11.330;2023-05-07T03:56:43;18.23;;;13.60;;
17814;SDS011;9031;50.974;11.330;2023-05-07T03:59:08;17.80;;;13.77;;
17814;SDS011;9031;50.974;11.330;2023-05-07T04:01:34;17.30;;;12.97;;
17814;SDS011;9031;50.974;11.330;2023-05-07T04:03:59;14.83;;;12.43;;
17814;SDS011;9031;50.974;11.330;2023-05-07T04:06:25;16.13;;;12.77;;
17814;SDS011;9031;50.974;11.330;2023-05-07T04:08:50;15.33;;;12.53;;
17814;SDS011;9031;50.974;11.330;2023-05-07T04:11:16;15.60;;;12.90;;
17814;SDS011;9031;50.974;11.330;2023-05-07T04:13:41;16.40;;;13.20;;
17814;SDS011;9031;50.974;11.330;2023-05-07T04:16:07;15.37;;;13.00;;
17814;SDS011;9031;50.974;11.330;2023-05-07T04:18:32;16.07;;;13.10;;
17814;SDS011;9031;50.974;11.330;2023-05-07T04:20:58;19.33;;;13.70;;
17814;SDS011;9031;50.974;11.330;2023-05-07T04:23:23;16.40;;;14.00;;
17814;SDS011;9031;50.974;11.330;2023-05-07T04:25:49;17.30;;;13.73;;
17814;SDS011;9031;50.974;11.330;2023-05-07T04:28:15;17.83;;;15.83;;
17814;SDS011;9031;50.974;11.330;2023-05-07T04:30:40;19.47;;;16.17;;
17814;SDS011;9031;50.974;11.330;2023-05-07T04:33:06;18.63;;;15.53;;
17814;SDS011;9031;50.974;11.330;2023-05-07T04:35:32;22.67;;;17.67;;
17814;SDS011;9031;50.974;11.330;2023-05-07T04:37:57;21.87;;;18.57;;
17814;SDS011;9031;50.974;11.330;2023-05-07T04:40:23;20.27;;;17.90;;
17814;SDS011;9031;50.974;11.330;2023-05-07T04:42:48;24.43;;;19.20;;
17814;SDS011;9031;50.974;11.330;2023-05-07T04:45:14;22.70;;;19.33;;
17814;SDS011;9031;50.974;11.330;2023-05-07T04:47:40;22.93;;;18.87;;
17814;SDS011;9031;50.974;11.330;2023-05-07T04:50:06;26.23;;;19.53;;
17814;SDS011;9031;50.974;11.330;2023-05-07T04:52:33;21.70;;;19.37;;
17814;SDS011;9031;50.974;11.330;2023-05-07T04:54:59;30.33;;;20.37;;
17814;SDS011;9031;50.974;11.330;2023-05-07T04:57:25;25.67;;;20.00;;
17814;SDS011;9031;50.974;11.330;2023-05-07T04:59:51;28.47;;;21.40;;
17814;SDS011;9031;50.974;11.330;2023-05-07T05:02:17;31.50;;;21.57;;
17814;SDS011;9031;50.974;11.330;2023-05-07T05:04:42;24.90;;;20.63;;
17814;SDS011;9031;50.974;11.330;2023-05-07T05:07:07;26.70;;;20.93;;
17814;SDS011;9031;50.974;11.330;2023-05-07T05:09:33;27.33;;;20.40;;
17814;SDS011;9031;50.974;11.330;2023-05-07T05:11:59;23.37;;;19.60;;
17814;SDS011;9031;50.974;11.330;2023-05-07T05:14:24;26.97;;;19.10;;
17814;SDS011;9031;50.974;11.330;2023-05-07T05:16:50;25.23;;;19.80;;
17814;SDS011;9031;50.974;11.330;2023-05-07T05:19:15;28.10;;;19.47;;
17814;SDS011;9031;50.974;11.330;2023-05-07T05:21:41;25.00;;;19.60;;
17814;SDS011;9031;50.974;11.330;2023-05-07T05:24:07;24.83;;;18.03;;
17814;SDS011;9031;50.974;11.330;2023-05-07T05:26:32;24.47;;;18.53;;
17814;SDS011;9031;50.974;11.330;2023-05-07T05:28:59;22.37;;;17.67;;
17814;SDS011;9031;50.974;11.330;2023-05-07T05:31:24;22.30;;;18.03;;
17814;SDS011;9031;50.974;11.330;2023-05-07T05:33:50;21.60;;;17.70;;
17814;SDS011;9031;50.974;11.330;2023-05-07T05:36:16;23.80;;;17.43;;
17814;SDS011;9031;50.974;11.330;2023-05-07T05:38:41;22.60;;;16.63;;
17814;SDS011;9031;50.974;11.330;2023-05-07T05:41:07;21.80;;;17.13;;
17814;SDS011;9031;50.974;11.330;2023-05-07T05:43:32;21.80;;;16.17;;
17814;SDS011;9031;50.974;11.330;2023-05-07T05:45:58;20.10;;;15.80;;
17814;SDS011;9031;50.974;11.330;2023-05-07T05:48:24;22.97;;;15.37;;
17814;SDS011;9031;50.974;11.330;2023-05-07T05:50:49;21.40;;;14.70;;
17814;SDS011;9031;50.974;11.330;2023-05-07T05:53:15;20.13;;;15.50;;
17814;SDS011;9031;50.974;11.330;2023-05-07T05:55:41;17.67;;;14.63;;
17814;SDS011;9031;50.974;11.330;2023-05-07T05:58:07;17.30;;;14.27;;
17814;SDS011;9031;50.974;11.330;2023-05-07T06:00:33;17.57;;;13.83;;
17814;SDS011;9031;50.974;11.330;2023-05-07T06:02:59;18.60;;;14.57;;
17814;SDS011;9031;50.974;11.330;2023-05-07T06:05:24;20.30;;;13.43;;
17814;SDS011;9031;50.974;11.330;2023-05-07T06:07:50;19.13;;;14.03;;
17814;SDS011;9031;50.974;11.330;2023-05-07T06:10:15;17.03;;;13.03;;
17814;SDS011;9031;50.974;11.330;2023-05-07T06:12:41;15.03;;;12.73;;
17814;SDS011;9031;50.974;11.330;2023-05-07T06:15:06;16.47;;;12.90;;
17814;SDS011;9031;50.974;11.330;2023-05-07T06:17:32;17.80;;;12.33;;
17814;SDS011;9031;50.974;11.330;2023-05-07T06:19:58;14.33;;;12.83;;
17814;SDS011;9031;50.974;11.330;2023-05-07T06:22:24;16.57;;;12.50;;
17814;SDS011;9031;50.974;11.330;2023-05-07T06:24:49;15.60;;;12.40;;
17814;SDS011;9031;50.974;11.330;2023-05-07T06:27:15;14.87;;;12.10;;
17814;SDS011;9031;50.974;11.330;2023-05-07T06:29:40;14.23;;;12.37;;
17814;SDS011;9031;50.974;11.330;2023-05-07T06:32:09;16.73;;;12.80;;
17814;SDS011;9031;50.974;11.330;2023-05-07T06:34:36;13.57;;;12.17;;
17814;SDS011;9031;50.974;11.330;2023-05-07T06:37:02;14.93;;;11.63;;
17814;SDS011;9031;50.974;11.330;2023-05-07T06:39:27;16.33;;;12.67;;
17814;SDS011;9031;50.974;11.330;2023-05-07T06:41:53;13.93;;;12.03;;
17814;SDS011;9031;50.974;11.330;2023-05-07T06:44:19;16.40;;;12.93;;
17814;SDS011;9031;50.974;11.330;2023-05-07T06:46:44;15.90;;;12.90;;
17814;SDS011;9031;50.974;11.330;2023-05-07T06:49:10;17.77;;;13.17;;
17814;SDS011;9031;50.974;11.330;2023-05-07T06:51:37;15.23;;;13.23;;
17814;SDS011;9031;50.974;11.330;2023-05-07T06:54:03;16.10;;;13.00;;
17814;SDS011;9031;50.974;11.330;2023-05-07T06:56:29;16.87;;;13.00;;
17814;SDS011;9031;50.974;11.330;2023-05-07T06:58:55;17.03;;;13.33;;
17814;SDS011;9031;50.974;11.330;2023-05-07T07:01:20;18.50;;;13.37;;
17814;SDS011;9031;50.974;11.330;2023-05-07T07:03:46;15.30;;;11.73;;
17814;SDS011;9031;50.974;11.330;2023-05-07T07:06:12;15.47;;;12.83;;
17814;SDS011;9031;50.974;11.330;2023-05-07T07:08:37;15.93;;;12.60;;
17814;SDS011;9031;50.974;11.330;2023-05-07T07:11:03;13.93;;;11.90;;
17814;SDS011;9031;50.974;11.330;2023-05-07T07:13:30;15.17;;;12.80;;
17814;SDS011;9031;50.974;11.330;2023-05-07T07:15:55;13.17;;;11.53;;
17814;SDS011;9031;50.974;11.330;2023-05-07T07:18:21;13.50;;;11.70;;
17814;SDS011;9031;50.974;11.330;2023-05-07T07:20:46;13.83;;;12.30;;
17814;SDS011;9031;50.974;11.330;2023-05-07T07:23:12;17.00;;;11.30;;
17814;SDS011;9031;50.974;11.330;2023-05-07T07:25:38;13.27;;;11.40;;
17814;SDS011;9031;50.974;11.330;2023-05-07T07:28:03;14.47;;;12.10;;
17814;SDS011;9031;50.974;11.330;2023-05-07T07:30:29;13.10;;;10.80;;
17814;SDS011;9031;50.974;11.330;2023-05-07T07:32:54;14.00;;;11.80;;
17814;SDS011;9031;50.974;11.330;2023-05-07T07:35:25;16.53;;;11.13;;
17814;SDS011;9031;50.974;11.330;2023-05-07T07:37:50;13.87;;;11.33;;
17814;SDS011;9031;50.974;11.330;2023-05-07T07:40:16;14.57;;;12.20;;
17814;SDS011;9031;50.974;11.330;2023-05-07T07:42:41;15.53;;;11.73;;
17814;SDS011;9031;50.974;11.330;2023-05-07T07:45:07;14.17;;;11.77;;
17814;SDS011;9031;50.974;11.330;2023-05-07T07:47:33;13.53;;;12.00;;
17814;SDS011;9031;50.974;11.330;2023-05-07T07:49:58;13.43;;;12.03;;
17814;SDS011;9031;50.974;11.330;2023-05-07T07:52:24;15.60;;;13.27;;
17814;SDS011;9031;50.974;11.330;2023-05-07T07:54:50;15.93;;;13.70;;
17814;SDS011;9031;50.974;11.330;2023-05-07T07:57:15;17.77;;;15.87;;
17814;SDS011;9031;50.974;11.330;2023-05-07T07:59:41;16.90;;;14.97;;
17814;SDS011;9031;50.974;11.330;2023-05-07T08:02:08;18.70;;;14.70;;
17814;SDS011;9031;50.974;11.330;2023-05-07T08:04:33;19.87;;;14.57;;
17814;SDS011;9031;50.974;11.330;2023-05-07T08:07:00;18.40;;;14.83;;
17814;SDS011;9031;50.974;11.330;2023-05-07T08:09:25;17.53;;;14.40;;
17814;SDS011;9031;50.974;11.330;2023-05-07T08:11:51;17.77;;;14.13;;
17814;SDS011;9031;50.974;11.330;2023-05-07T08:14:16;15.40;;;13.23;;
17814;SDS011;9031;50.974;11.330;2023-05-07T08:16:42;17.67;;;15.03;;
17814;SDS011;9031;50.974;11.330;2023-05-07T08:19:07;16.40;;;14.70;;
17814;SDS011;9031;50.974;11.330;2023-05-07T08:21:33;18.30;;;15.00;;
17814;SDS011;9031;50.974;11.330;2023-05-07T08:23:59;18.37;;;13.90;;
17814;SDS011;9031;50.974;11.330;2023-05-07T08:26:25;18.10;;;14.30;;
17814;SDS011;9031;50.974;11.330;2023-05-07T08:28:50;15.30;;;13.70;;
17814;SDS011;9031;50.974;11.330;2023-05-07T08:31:16;17.30;;;14.73;;
17814;SDS011;9031;50.974;11.330;2023-05-07T08:33:41;18.50;;;14.43;;
17814;SDS011;9031;50.974;11.330;2023-05-07T08:36:07;20.87;;;14.47;;
17814;SDS011;9031;50.974;11.330;2023-05-07T08:38:32;14.90;;;12.87;;
17814;SDS011;9031;50.974;11.330;2023-05-07T08:40:58;15.20;;;13.60;;
17814;SDS011;9031;50.974;11.330;2023-05-07T08:43:25;15.67;;;12.70;;
17814;SDS011;9031;50.974;11.330;2023-05-07T08:45:53;13.90;;;12.50;;
17814;SDS011;9031;50.974;11.330;2023-05-07T08:48:20;15.13;;;13.37;;
17814;SDS011;9031;50.974;11.330;2023-05-07T08:50:50;14.43;;;11.60;;
17814;SDS011;9031;50.974;11.330;2023-05-07T08:53:16;14.23;;;11.97;;
17814;SDS011;9031;50.974;11.330;2023-05-07T08:55:41;14.13;;;11.60;;
17814;SDS011;9031;50.974;11.330;2023-05-07T08:58:07;13.73;;;11.40;;
17814;SDS011;9031;50.974;11.330;2023-05-07T09:00:32;12.97;;;11.60;;
17814;SDS011;9031;50.974;11.330;2023-05-07T09:02:59;13.00;;;10.73;;
17814;SDS011;9031;50.974;11.330;2023-05-07T09:05:25;13.07;;;11.67;;
17814;SDS011;9031;50.974;11.330;2023-05-07T09:07:51;13.20;;;11.80;;
17814;SDS011;9031;50.974;11.330;2023-05-07T09:10:16;14.13;;;11.83;;
17814;SDS011;9031;50.974;11.330;2023-05-07T09:12:42;14.37;;;11.73;;
17814;SDS011;9031;50.974;11.330;2023-05-07T09:15:07;14.40;;;12.80;;
17814;SDS011;9031;50.974;11.330;2023-05-07T09:17:33;13.33;;;12.03;;
17814;SDS011;9031;50.974;11.330;2023-05-07T09:20:05;14.70;;;13.20;;
17814;SDS011;9031;50.974;11.330;2023-05-07T09:22:32;15.73;;;12.47;;
17814;SDS011;9031;50.974;11.330;2023-05-07T09:24:58;16.07;;;12.60;;
17814;SDS011;9031;50.974;11.330;2023-05-07T09:27:24;14.33;;;12.83;;
17814;SDS011;9031;50.974;11.330;2023-05-07T09:29:51;15.13;;;12.30;;
17814;SDS011;9031;50.974;11.330;2023-05-07T09:32:16;15.00;;;13.43;;
17814;SDS011;9031;50.974;11.330;2023-05-07T09:34:42;14.63;;;12.50;;
17814;SDS011;9031;50.974;11.330;2023-05-07T09:37:07;13.80;;;12.00;;
17814;SDS011;9031;50.974;11.330;2023-05-07T09:39:43;14.37;;;12.53;;
17814;SDS011;9031;50.974;11.330;2023-05-07T09:42:11;13.70;;;12.30;;
17814;SDS011;9031;50.974;11.330;2023-05-07T09:44:38;13.60;;;12.17;;
17814;SDS011;9031;50.974;11.330;2023-05-07T09:47:04;14.93;;;12.50;;
17814;SDS011;9031;50.974;11.330;2023-05-07T09:49:30;13.73;;;12.30;;
17814;SDS011;9031;50.974;11.330;2023-05-07T09:52:02;14.03;;;12.63;;
17814;SDS011;9031;50.974;11.330;2023-05-07T09:54:30;12.13;;;10.57;;
17814;SDS011;9031;50.974;11.330;2023-05-07T09:56:57;13.03;;;11.73;;
17814;SDS011;9031;50.974;11.330;2023-05-07T09:59:24;13.40;;;10.77;;
17814;SDS011;9031;50.974;11.330;2023-05-07T10:01:50;11.53;;;10.33;;
17814;SDS011;9031;50.974;11.330;2023-05-07T10:04:17;11.40;;;10.20;;
17814;SDS011;9031;50.974;11.330;2023-05-07T10:06:43;10.80;;;9.70;;
17814;SDS011;9031;50.974;11.330;2023-05-07T10:09:09;11.80;;;10.17;;
17814;SDS011;9031;50.974;11.330;2023-05-07T10:11:36;14.27;;;11.67;;
17814;SDS011;9031;50.974;11.330;2023-05-07T10:14:02;13.97;;;11.67;;
17814;SDS011;9031;50.974;11.330;2023-05-07T10:16:31;13.07;;;11.60;;
17814;SDS011;9031;50.974;11.330;2023-05-07T10:19:02;13.63;;;11.80;;
17814;SDS011;9031;50.974;11.330;2023-05-07T10:21:33;13.27;;;11.93;;
17814;SDS011;9031;50.974;11.330;2023-05-07T10:24:05;12.83;;;11.53;;
17814;SDS011;9031;50.974;11.330;2023-05-07T10:26:33;12.63;;;11.43;;
17814;SDS011;9031;50.974;11.330;2023-05-07T10:29:04;14.50;;;12.70;;
17814;SDS011;9031;50.974;11.330;2023-05-07T10:34:26;14.30;;;12.57;;
17814;SDS011;9031;50.974;11.330;2023-05-07T10:36:57;13.60;;;11.97;;
17814;SDS011;9031;50.974;11.330;2023-05-07T10:39:23;14.17;;;12.07;;
17814;SDS011;9031;50.974;11.330;2023-05-07T10:41:49;14.30;;;12.80;;
17814;SDS011;9031;50.974;11.330;2023-05-07T10:44:24;13.20;;;11.87;;
17814;SDS011;9031;50.974;11.330;2023-05-07T10:47:10;14.40;;;12.90;;
17814;SDS011;9031;50.974;11.330;2023-05-07T10:49:37;13.40;;;12.10;;
17814;SDS011;9031;50.974;11.330;2023-05-07T10:54:40;13.17;;;11.47;;
17814;SDS011;9031;50.974;11.330;2023-05-07T10:59:58;12.43;;;11.13;;
17814;SDS011;9031;50.974;11.330;2023-05-07T11:02:23;13.10;;;11.80;;
17814;SDS011;9031;50.974;11.330;2023-05-07T11:05:24;12.53;;;11.17;;
17814;SDS011;9031;50.974;11.330;2023-05-07T11:07:59;14.93;;;11.17;;
17814;SDS011;9031;50.974;11.330;2023-05-07T11:13:14;12.47;;;11.10;;
17814;SDS011;9031;50.974;11.330;2023-05-07T11:15:44;11.80;;;10.37;;
17814;SDS011;9031;50.974;11.330;2023-05-07T11:18:11;13.20;;;10.20;;
17814;SDS011;9031;50.974;11.330;2023-05-07T11:26:07;11.37;;;10.00;;
17814;SDS011;9031;50.974;11.330;2023-05-07T11:28:37;10.40;;;9.00;;
17814;SDS011;9031;50.974;11.330;2023-05-07T11:31:04;12.13;;;9.50;;
17814;SDS011;9031;50.974;11.330;2023-05-07T11:33:30;9.90;;;8.87;;
17814;SDS011;9031;50.974;11.330;2023-05-07T11:35:56;9.80;;;8.80;;
17814;SDS011;9031;50.974;11.330;2023-05-07T11:38:22;11.63;;;9.00;;
17814;SDS011;9031;50.974;11.330;2023-05-07T11:40:51;11.83;;;9.23;;
17814;SDS011;9031;50.974;11.330;2023-05-07T11:43:17;11.47;;;8.70;;
17814;SDS011;9031;50.974;11.330;2023-05-07T11:45:46;10.40;;;9.07;;
17814;SDS011;9031;50.974;11.330;2023-05-07T11:48:13;10.53;;;9.00;;
17814;SDS011;9031;50.974;11.330;2023-05-07T11:53:27;9.57;;;8.57;;
17814;SDS011;9031;50.974;11.330;2023-05-07T11:55:59;9.97;;;8.97;;
17814;SDS011;9031;50.974;11.330;2023-05-07T11:58:25;9.27;;;8.23;;
17814;SDS011;9031;50.974;11.330;2023-05-07T12:00:53;9.77;;;8.77;;
17814;SDS011;9031;50.974;11.330;2023-05-07T12:03:20;10.47;;;8.13;;
17814;SDS011;9031;50.974;11.330;2023-05-07T12:05:46;11.17;;;7.87;;
17814;SDS011;9031;50.974;11.330;2023-05-07T12:08:15;10.33;;;7.90;;
17814;SDS011;9031;50.974;11.330;2023-05-07T12:10:42;8.50;;;7.60;;
17814;SDS011;9031;50.974;11.330;2023-05-07T12:13:18;9.50;;;8.27;;
17814;SDS011;9031;50.974;11.330;2023-05-07T12:15:45;8.60;;;7.73;;
17814;SDS011;9031;50.974;11.330;2023-05-07T12:18:11;9.70;;;8.70;;
17814;SDS011;9031;50.974;11.330;2023-05-07T12:20:38;11.93;;;9.77;;
17814;SDS011;9031;50.974;11.330;2023-05-07T12:23:04;8.90;;;8.00;;
17814;SDS011;9031;50.974;11.330;2023-05-07T12:25:31;10.13;;;8.77;;
17814;SDS011;9031;50.974;11.330;2023-05-07T12:27:57;8.63;;;7.63;;
17814;SDS011;9031;50.974;11.330;2023-05-07T12:30:25;9.17;;;7.87;;
17814;SDS011;9031;50.974;11.330;2023-05-07T12:32:53;9.30;;;8.40;;
17814;SDS011;9031;50.974;11.330;2023-05-07T12:35:26;8.70;;;7.27;;
17814;SDS011;9031;50.974;11.330;2023-05-07T12:37:56;7.63;;;6.87;;
17814;SDS011;9031;50.974;11.330;2023-05-07T12:40:24;8.50;;;7.73;;
17814;SDS011;9031;50.974;11.330;2023-05-07T12:43:00;9.93;;;7.07;;
17814;SDS011;9031;50.974;11.330;2023-05-07T12:45:25;8.03;;;7.23;;
17814;SDS011;9031;50.974;11.330;2023-05-07T12:47:51;7.80;;;7.10;;
17814;SDS011;9031;50.974;11.330;2023-05-07T12:50:16;9.47;;;7.07;;
17814;SDS011;9031;50.974;11.330;2023-05-07T12:52:42;7.97;;;7.17;;
17814;SDS011;9031;50.974;11.330;2023-05-07T12:55:11;7.73;;;6.93;;
17814;SDS011;9031;50.974;11.330;2023-05-07T12:57:39;8.27;;;7.47;;
17814;SDS011;9031;50.974;11.330;2023-05-07T13:00:12;7.50;;;6.73;;
17814;SDS011;9031;50.974;11.330;2023-05-07T13:02:38;6.73;;;6.13;;
17814;SDS011;9031;50.974;11.330;2023-05-07T13:05:05;6.63;;;6.03;;
17814;SDS011;9031;50.974;11.330;2023-05-07T13:07:32;8.30;;;6.60;;
17814;SDS011;9031;50.974;11.330;2023-05-07T13:09:57;6.13;;;5.53;;
17814;SDS011;9031;50.974;11.330;2023-05-07T13:12:23;7.20;;;6.50;;
17814;SDS011;9031;50.974;11.330;2023-05-07T13:14:48;7.10;;;6.00;;
17814;SDS011;9031;50.974;11.330;2023-05-07T13:17:13;7.13;;;6.43;;
17814;SDS011;9031;50.974;11.330;2023-05-07T13:19:39;6.90;;;6.20;;
17814;SDS011;9031;50.974;11.330;2023-05-07T13:22:05;7.23;;;6.53;;
17814;SDS011;9031;50.974;11.330;2023-05-07T13:24:30;6.37;;;5.70;;
17814;SDS011;9031;50.974;11.330;2023-05-07T13:26:56;6.60;;;5.60;;
17814;SDS011;9031;50.974;11.330;2023-05-07T13:29:21;6.73;;;6.13;;
17814;SDS011;9031;50.974;11.330;2023-05-07T13:31:54;6.53;;;5.90;;
17814;SDS011;9031;50.974;11.330;2023-05-07T13:34:20;6.40;;;5.80;;
17814;SDS011;9031;50.974;11.330;2023-05-07T13:36:45;7.50;;;5.80;;
17814;SDS011;9031;50.974;11.330;2023-05-07T13:39:11;6.13;;;5.63;;
17814;SDS011;9031;50.974;11.330;2023-05-07T13:41:36;6.60;;;6.00;;
17814;SDS011;9031;50.974;11.330;2023-05-07T13:44:02;7.00;;;6.10;;
17814;SDS011;9031;50.974;11.330;2023-05-07T13:46:27;6.47;;;5.03;;
17814;SDS011;9031;50.974;11.330;2023-05-07T13:48:54;7.23;;;5.73;;
17814;SDS011;9031;50.974;11.330;2023-05-07T13:51:20;6.47;;;5.03;;
17814;SDS011;9031;50.974;11.330;2023-05-07T13:53:46;5.53;;;4.67;;
17814;SDS011;9031;50.974;11.330;2023-05-07T13:56:12;4.80;;;4.40;;
17814;SDS011;9031;50.974;11.330;2023-05-07T13:58:37;5.53;;;5.03;;
17814;SDS011;9031;50.974;11.330;2023-05-07T14:01:03;7.70;;;4.53;;
17814;SDS011;9031;50.974;11.330;2023-05-07T14:03:28;4.93;;;4.37;;
17814;SDS011;9031;50.974;11.330;2023-05-07T14:05:56;4.47;;;3.93;;
17814;SDS011;9031;50.974;11.330;2023-05-07T14:08:22;4.70;;;4.30;;
17814;SDS011;9031;50.974;11.330;2023-05-07T14:10:48;4.30;;;3.90;;
17814;SDS011;9031;50.974;11.330;2023-05-07T14:13:13;4.73;;;4.33;;
17814;SDS011;9031;50.974;11.330;2023-05-07T14:15:39;5.63;;;4.00;;
17814;SDS011;9031;50.974;11.330;2023-05-07T14:18:05;3.60;;;3.30;;
17814;SDS011;9031;50.974;11.330;2023-05-07T14:20:30;3.83;;;3.53;;
17814;SDS011;9031;50.974;11.330;2023-05-07T14:22:56;3.70;;;3.40;;
17814;SDS011;9031;50.974;11.330;2023-05-07T14:25:21;4.60;;;3.87;;
17814;SDS011;9031;50.974;11.330;2023-05-07T14:27:47;4.27;;;3.40;;
17814;SDS011;9031;50.974;11.330;2023-05-07T14:30:12;3.33;;;3.00;;
17814;SDS011;9031;50.974;11.330;2023-05-07T14:32:38;3.83;;;3.53;;
17814;SDS011;9031;50.974;11.330;2023-05-07T14:35:04;4.10;;;3.27;;
17814;SDS011;9031;50.974;11.330;2023-05-07T14:37:29;4.33;;;3.13;;
17814;SDS011;9031;50.974;11.330;2023-05-07T14:39:55;3.10;;;2.80;;